Time;durP1;ratioP1;P1;durP2;ratioP2;P2;SDS_P1;SDS_P2;PMS_P1;PMS_P2;Temp;Humidity;BMP_temperature;BMP_pressure;BME280_temperature;BME280_humidity;BME280_pressure;Samples;Min_cycle;Max_cycle;Signal;HPM_P1;HPM_P2
2022/08/19 00:00:43;;;;;;;;;18.33;18.00;;;;;22.63;100.00;101292.53;5027492;28;45271;-71
2022/08/19 00:03:09;;;;;;;;;14.33;14.33;;;;;22.58;100.00;101295.38;5022262;28;64087;-69
2022/08/19 00:05:34;;;;;;;;;11.33;11.33;;;;;22.57;100.00;101290.03;5002747;28;45357;-69
2022/08/19 00:07:59;;;;;;;;;21.00;16.67;;;;;22.53;100.00;101293.75;5018830;28;59478;-71
2022/08/19 00:10:25;;;;;;;;;16.67;16.67;;;;;22.47;100.00;101282.25;5010165;28;46954;-73
2022/08/19 00:12:50;;;;;;;;;15.67;15.00;;;;;22.49;100.00;101295.66;5020591;28;45933;-68
2022/08/19 00:15:18;;;;;;;;;16.67;14.33;;;;;22.46;100.00;101298.44;5021146;28;45449;-69
2022/08/19 00:17:44;;;;;;;;;19.33;15.67;;;;;22.42;100.00;101297.66;5016320;28;45431;-70
2022/08/19 00:20:16;;;;;;;;;18.67;16.00;;;;;22.40;100.00;101299.50;5030415;28;45391;-68
2022/08/19 00:22:41;;;;;;;;;18.00;17.33;;;;;22.38;100.00;101301.38;5027206;28;46674;-71
2022/08/19 00:25:07;;;;;;;;;16.67;16.67;;;;;22.29;100.00;101288.19;5019163;28;45249;-71
2022/08/19 00:27:33;;;;;;;;;14.33;13.33;;;;;22.31;100.00;101305.16;5031862;28;45462;-69
2022/08/19 00:29:59;;;;;;;;;21.00;17.00;;;;;22.25;100.00;101294.59;5027562;28;45290;-69
2022/08/19 00:32:25;;;;;;;;;14.00;14.00;;;;;22.29;100.00;101304.34;5018437;28;46607;-69
2022/08/19 00:34:52;;;;;;;;;16.00;15.00;;;;;22.24;100.00;101300.91;5029110;28;45452;-69
2022/08/19 00:37:19;;;;;;;;;14.67;13.00;;;;;22.24;100.00;101300.91;5028280;28;45512;-69
2022/08/19 00:39:44;;;;;;;;;15.33;12.67;;;;;22.24;100.00;101303.59;5035926;28;45404;-72
2022/08/19 00:42:10;;;;;;;;;15.00;13.33;;;;;22.18;100.00;101299.28;5032857;28;46455;-70
2022/08/19 00:44:35;;;;;;;;;14.33;12.33;;;;;22.14;100.00;101297.59;5021549;28;50509;-73
2022/08/19 00:47:00;;;;;;;;;14.00;13.33;;;;;22.14;100.00;101310.19;5029699;28;60704;-69
2022/08/19 00:49:37;;;;;;;;;16.67;16.67;;;;;22.11;100.00;101319.22;5030018;28;49114;-69
2022/08/19 00:52:08;;;;;;;;;14.33;14.33;;;;;22.02;100.00;101302.44;5024697;28;47022;-71
2022/08/19 00:54:36;;;;;;;;;15.00;14.33;;;;;22.05;100.00;101307.72;5036718;28;45596;-69
2022/08/19 00:57:05;;;;;;;;;15.00;13.33;;;;;22.02;100.00;101310.50;5026301;28;45548;-68
2022/08/19 00:59:31;;;;;;;;;15.67;15.67;;;;;21.97;100.00;101299.88;5006045;28;45503;-69
2022/08/19 01:01:56;;;;;;;;;12.67;12.67;;;;;21.95;100.00;101297.25;5023304;28;47440;-69
2022/08/19 01:04:21;;;;;;;;;15.33;13.67;;;;;21.94;100.00;101294.56;5012939;28;63630;-69
2022/08/19 01:06:47;;;;;;;;;17.00;15.00;;;;;21.91;100.00;101300.94;5018473;28;57817;-68
2022/08/19 01:09:13;;;;;;;;;17.00;15.67;;;;;21.91;100.00;101305.44;5023474;28;63367;-69
2022/08/19 01:11:41;;;;;;;;;17.33;17.33;;;;;21.88;100.00;101301.00;5021884;28;46318;-70
2022/08/19 01:14:08;;;;;;;;;15.00;15.00;;;;;21.88;100.00;101309.06;5011453;28;45399;-68
2022/08/19 01:16:34;;;;;;;;;17.33;16.33;;;;;21.86;100.00;101305.56;5020761;28;45452;-69
2022/08/19 01:19:00;;;;;;;;;14.33;14.33;;;;;21.84;100.00;101296.66;5010720;28;45479;-69
2022/08/19 01:21:42;;;;;;;;;17.67;15.33;;;;;21.78;100.00;101282.50;5005944;28;69951;-69
2022/08/19 01:24:08;;;;;;;;;17.00;15.33;;;;;21.80;100.00;101297.66;5007209;28;45372;-69
2022/08/19 01:26:40;;;;;;;;;15.67;15.67;;;;;21.80;100.00;101302.16;5034074;28;45550;-72
2022/08/19 01:29:07;;;;;;;;;15.00;13.33;;;;;21.74;100.00;101295.16;5024160;28;45252;-68
2022/08/19 01:31:33;;;;;;;;;17.33;15.00;;;;;21.71;100.00;101298.78;5030518;28;46584;-70
2022/08/19 01:34:00;;;;;;;;;17.67;14.67;;;;;21.68;100.00;101301.59;5011553;28;45316;-71
2022/08/19 01:36:37;;;;;;;;;20.33;18.33;;;;;21.68;100.00;101312.34;5030416;28;45409;-71
2022/08/19 01:39:07;;;;;;;;;16.33;16.33;;;;;21.69;100.00;101318.59;5021254;28;45332;-68
2022/08/19 01:41:33;;;;;;;;;16.33;16.33;;;;;21.60;100.00;101311.66;5030179;28;46574;-68
2022/08/19 01:43:58;;;;;;;;;19.33;19.33;;;;;21.62;100.00;101315.16;5035751;28;45845;-69
2022/08/19 01:46:24;;;;;;;;;20.00;19.00;;;;;21.64;100.00;101316.03;5024395;28;45227;-70
2022/08/19 01:48:49;;;;;;;;;21.00;19.00;;;;;21.58;100.00;101309.94;5032875;28;45523;-68
2022/08/19 01:51:15;;;;;;;;;19.67;18.00;;;;;21.59;100.00;101315.28;5026691;28;71095;-71
2022/08/19 01:53:41;;;;;;;;;17.67;16.00;;;;;21.53;100.00;101314.56;5025299;28;63360;-68
2022/08/19 01:56:06;;;;;;;;;17.33;16.67;;;;;21.53;100.00;101311.88;5026198;28;45237;-69
2022/08/19 01:58:36;;;;;;;;;17.67;17.33;;;;;21.55;100.00;101323.44;5025764;28;65541;-71
2022/08/19 02:01:03;;;;;;;;;15.33;15.33;;;;;21.52;100.00;101327.13;5018272;28;47414;-69
2022/08/19 02:03:28;;;;;;;;;19.00;17.67;;;;;21.45;100.00;101310.25;5034996;28;45597;-69
2022/08/19 02:05:59;;;;;;;;;20.33;15.67;;;;;21.47;100.00;101323.66;5039777;28;45438;-69
2022/08/19 02:08:26;;;;;;;;;17.00;14.67;;;;;21.43;100.00;101313.91;5033964;28;45496;-69
2022/08/19 02:10:51;;;;;;;;;20.00;17.33;;;;;21.43;100.00;101312.09;5026580;28;46539;-68
2022/08/19 02:13:17;;;;;;;;;19.33;17.33;;;;;21.41;100.00;101310.38;5026493;28;45549;-69
2022/08/19 02:15:42;;;;;;;;;17.67;16.33;;;;;21.44;100.00;101316.56;5023817;28;45449;-72
2022/08/19 02:18:08;;;;;;;;;17.67;14.33;;;;;21.38;100.00;101303.28;5015864;28;54478;-69
2022/08/19 02:20:34;;;;;;;;;20.67;17.33;;;;;21.42;100.00;101317.53;5026099;28;46539;-68
2022/08/19 02:23:00;;;;;;;;;15.67;14.67;;;;;21.36;100.00;101314.97;5030174;28;45337;-71
2022/08/19 02:25:26;;;;;;;;;13.00;12.67;;;;;21.39;100.00;101318.47;5030054;28;45427;-72
2022/08/19 02:27:51;;;;;;;;;24.67;21.33;;;;;21.42;100.00;101317.53;5030738;28;45605;-68
2022/08/19 02:30:18;;;;;;;;;18.67;17.67;;;;;21.39;100.00;101313.09;5033082;28;47214;-69
2022/08/19 02:32:44;;;;;;;;;18.00;15.67;;;;;21.43;100.00;101316.59;5034974;28;45527;-69
2022/08/19 02:35:09;;;;;;;;;14.33;13.33;;;;;21.38;100.00;101311.34;5033586;28;45346;-72
2022/08/19 02:40:19;;;;;;;;;16.67;16.00;;;;;21.41;100.00;101326.47;5027146;28;45920;-69
2022/08/19 02:42:45;;;;;;;;;16.00;16.00;;;;;21.41;100.00;101321.13;5020224;28;45429;-68
2022/08/19 02:45:11;;;;;;;;;17.00;17.00;;;;;21.31;100.00;101309.75;5025447;28;45445;-71
2022/08/19 02:47:37;;;;;;;;;18.33;16.00;;;;;21.32;100.00;101316.88;5025779;28;45466;-68
2022/08/19 02:50:04;;;;;;;;;16.00;16.00;;;;;21.30;100.00;101305.28;5026445;28;45753;-71
2022/08/19 02:52:29;;;;;;;;;15.67;15.67;;;;;21.33;100.00;101315.94;5035966;28;45865;-69
2022/08/19 02:54:57;;;;;;;;;16.67;15.00;;;;;21.32;100.00;101314.19;5027723;28;45327;-68
2022/08/19 02:57:23;;;;;;;;;15.67;15.67;;;;;21.31;100.00;101320.50;5018210;28;45503;-69
2022/08/19 02:59:49;;;;;;;;;20.33;16.33;;;;;21.31;100.00;101323.19;5027087;28;45757;-71
2022/08/19 03:02:15;;;;;;;;;16.67;16.67;;;;;21.25;100.00;101308.97;5025376;28;45225;-68
2022/08/19 03:04:41;;;;;;;;;15.00;14.67;;;;;21.28;100.00;101317.84;5029576;28;45361;-71
2022/08/19 03:07:06;;;;;;;;;17.00;16.33;;;;;21.23;100.00;101316.19;5017828;28;45633;-69
2022/08/19 03:09:32;;;;;;;;;15.67;15.67;;;;;21.26;100.00;101330.44;5017874;28;67627;-69
2022/08/19 03:11:57;;;;;;;;;16.33;16.33;;;;;21.23;100.00;101317.06;5032053;28;62078;-69
2022/08/19 03:14:23;;;;;;;;;21.00;16.00;;;;;21.28;100.00;101327.69;5022545;28;53617;-71
2022/08/19 03:16:52;;;;;;;;;15.67;15.67;;;;;21.26;100.00;101329.56;5025432;28;45454;-69
2022/08/19 03:19:20;;;;;;;;;15.67;15.33;;;;;21.25;100.00;101314.34;5031999;28;45936;-70
2022/08/19 03:21:46;;;;;;;;;17.67;16.00;;;;;21.23;100.00;101322.44;5007095;28;45520;-71
2022/08/19 03:24:13;;;;;;;;;17.00;16.00;;;;;21.25;100.00;101315.22;5028074;28;45529;-70
2022/08/19 03:26:41;;;;;;;;;16.00;13.67;;;;;21.19;100.00;101312.69;5027254;28;45607;-70
2022/08/19 03:29:10;;;;;;;;;15.00;14.33;;;;;21.16;100.00;101310.97;5021650;28;46546;-71
2022/08/19 03:31:37;;;;;;;;;13.67;13.33;;;;;21.15;100.00;101308.34;5014803;28;45312;-71
2022/08/19 03:34:03;;;;;;;;;18.67;17.00;;;;;21.14;100.00;101306.56;5034839;28;45371;-72
2022/08/19 03:36:28;;;;;;;;;15.00;15.00;;;;;21.21;100.00;101323.41;5016202;28;63942;-69
2022/08/19 03:38:58;;;;;;;;;18.00;16.33;;;;;21.18;100.00;101303.75;5008842;28;45446;-69
2022/08/19 03:41:26;;;;;;;;;18.00;16.00;;;;;21.26;100.00;101321.50;5026127;28;45371;-73
2022/08/19 03:43:52;;;;;;;;;15.33;13.67;;;;;21.23;100.00;101308.13;5017057;28;45364;-71
2022/08/19 03:46:23;;;;;;;;;14.67;14.00;;;;;21.26;100.00;101321.50;5032985;28;45433;-70
2022/08/19 03:48:53;;;;;;;;;18.00;17.00;;;;;21.23;100.00;101317.06;5028404;28;46625;-71
2022/08/19 03:51:31;;;;;;;;;16.67;14.33;;;;;21.24;100.00;101317.94;5020451;28;45407;-70
2022/08/19 03:53:58;;;;;;;;;19.33;16.33;;;;;21.19;100.00;101312.69;5030037;28;45461;-69
2022/08/19 03:56:27;;;;;;;;;13.67;12.67;;;;;21.18;100.00;101303.75;5019646;28;45527;-69
2022/08/19 03:58:53;;;;;;;;;13.33;13.33;;;;;21.28;100.00;101315.16;5019803;28;45532;-72
2022/08/19 04:01:21;;;;;;;;;16.00;14.67;;;;;21.29;100.00;101321.41;5026284;28;45346;-70
2022/08/19 04:03:47;;;;;;;;;16.00;14.33;;;;;21.20;100.00;101309.09;5027262;28;45506;-70
2022/08/19 04:06:21;;;;;;;;;14.67;13.33;;;;;21.23;100.00;101308.13;5025115;28;45339;-69
2022/08/19 04:08:50;;;;;;;;;14.33;11.67;;;;;21.15;100.00;101300.28;5026952;28;45747;-69
2022/08/19 04:11:20;;;;;;;;;14.00;14.00;;;;;21.26;100.00;101322.38;5032049;28;46481;-71
2022/08/19 04:13:45;;;;;;;;;12.67;12.67;;;;;21.25;100.00;101309.84;5011451;28;45576;-70
2022/08/19 04:16:11;;;;;;;;;14.67;13.33;;;;;21.22;100.00;101306.38;5006352;28;45363;-71
2022/08/19 04:18:38;;;;;;;;;14.00;13.00;;;;;21.22;100.00;101304.56;5023314;28;68991;-69
2022/08/19 04:21:04;;;;;;;;;14.00;14.00;;;;;21.24;100.00;101310.78;5020267;28;45512;-68
2022/08/19 04:23:30;;;;;;;;;11.67;11.67;;;;;21.22;100.00;101304.56;5013616;28;45500;-68
2022/08/19 04:25:55;;;;;;;;;11.00;10.00;;;;;21.23;100.00;101308.13;5015772;28;66789;-68
2022/08/19 04:28:22;;;;;;;;;16.00;12.33;;;;;21.27;100.00;101316.09;5020716;28;46595;-72
2022/08/19 04:30:49;;;;;;;;;12.33;10.33;;;;;21.28;100.00;101314.28;5025707;28;45352;-68
2022/08/19 04:33:19;;;;;;;;;9.67;9.67;;;;;21.23;100.00;101314.38;5010976;28;45437;-69
2022/08/19 04:35:46;;;;;;;;;10.00;9.00;;;;;21.27;100.00;101309.81;5014694;28;45621;-70
2022/08/19 04:38:13;;;;;;;;;9.67;7.67;;;;;21.23;100.00;101311.69;5029147;28;46603;-72
2022/08/19 04:43:32;;;;;;;;;12.67;11.67;;;;;21.21;100.00;101310.88;5029531;28;45459;-69
2022/08/19 04:45:58;;;;;;;;;10.00;10.00;;;;;21.12;100.00;101317.34;5026725;28;45203;-70
2022/08/19 04:48:27;;;;;;;;;8.33;8.33;;;;;21.14;100.00;101310.13;5009607;28;45271;-71
2022/08/19 04:50:57;;;;;;;;;9.00;9.00;;;;;21.22;100.00;101330.56;5024840;28;45478;-70
2022/08/19 04:53:24;;;;;;;;;9.33;9.33;;;;;21.24;100.00;101340.31;5026145;28;45327;-70
2022/08/19 04:55:49;;;;;;;;;11.33;10.67;;;;;21.21;100.00;101335.03;5010876;28;45643;-69
2022/08/19 04:58:16;;;;;;;;;9.67;9.00;;;;;21.26;100.00;101343.88;5018449;28;61594;-70
2022/08/19 05:00:42;;;;;;;;;7.67;7.67;;;;;21.25;100.00;101334.00;5024049;28;45424;-70
2022/08/19 05:03:07;;;;;;;;;11.00;9.00;;;;;21.28;100.00;101336.63;5029461;28;61194;-68
2022/08/19 05:05:33;;;;;;;;;10.33;9.00;;;;;21.34;100.00;101341.00;5034405;28;45354;-71
2022/08/19 05:07:58;;;;;;;;;8.67;8.67;;;;;21.39;100.00;101339.97;5026760;28;45943;-71
2022/08/19 05:10:24;;;;;;;;;8.67;7.33;;;;;21.41;100.00;101343.53;5026295;28;67451;-68
2022/08/19 05:12:49;;;;;;;;;6.67;6.67;;;;;21.36;100.00;101328.41;5019660;28;62717;-72
2022/08/19 05:15:16;;;;;;;;;9.00;8.00;;;;;21.40;100.00;101341.72;5018606;28;53633;-69
2022/08/19 05:22:31;;;;;;;;;8.00;8.00;;;;;21.36;100.00;101340.06;5026335;28;45844;-70
2022/08/19 05:23:11;;;;;;;;;9.33;7.00;;;;;21.41;100.00;101354.25;5021359;28;45556;-68
2022/08/19 05:25:39;;;;;;;;;10.00;6.67;;;;;21.36;100.00;101348.13;5026414;28;45506;-70
2022/08/19 05:28:04;;;;;;;;;7.33;7.00;;;;;21.33;100.00;101350.88;5027520;28;45809;-68
2022/08/19 05:30:29;;;;;;;;;8.67;5.00;;;;;21.32;100.00;101351.81;5031811;28;66192;-71
2022/08/19 05:32:55;;;;;;;;;4.00;4.00;;;;;21.33;100.00;101355.38;5024523;28;47485;-69
2022/08/19 05:35:23;;;;;;;;;6.00;6.00;;;;;21.27;100.00;101344.75;5027995;28;45535;-71
2022/08/19 05:37:48;;;;;;;;;6.00;6.00;;;;;21.38;100.00;101364.19;5032515;28;45751;-69
2022/08/19 05:40:13;;;;;;;;;6.00;5.00;;;;;21.31;100.00;101341.97;5030734;28;66873;-70
2022/08/19 05:42:39;;;;;;;;;7.00;5.00;;;;;21.19;100.00;101332.38;5021965;28;45505;-68
2022/08/19 05:45:05;;;;;;;;;6.00;6.00;;;;;21.30;100.00;101350.94;5018861;28;58293;-69
2022/08/19 05:47:30;;;;;;;;;5.33;5.33;;;;;21.29;100.00;101349.16;5020870;28;46269;-69
2022/08/19 05:49:55;;;;;;;;;7.00;5.00;;;;;21.30;100.00;101353.63;5020442;28;59815;-68
2022/08/19 05:52:20;;;;;;;;;6.67;5.00;;;;;21.28;100.00;101347.38;5024389;28;58403;-67
2022/08/19 05:54:47;;;;;;;;;6.00;6.00;;;;;21.31;100.00;101359.91;5024306;28;58231;-67
2022/08/19 05:57:13;;;;;;;;;7.33;5.00;;;;;21.30;100.00;101359.00;5005670;28;47378;-68
2022/08/19 05:59:38;;;;;;;;;7.67;5.33;;;;;21.29;100.00;101357.19;5025021;28;45636;-67
2022/08/19 06:02:06;;;;;;;;;5.00;5.00;;;;;21.25;100.00;101342.06;5021007;28;46568;-68
2022/08/19 06:04:31;;;;;;;;;5.33;5.33;;;;;21.31;100.00;101358.09;5024935;28;45637;-69
2022/08/19 06:06:58;;;;;;;;;5.00;5.00;;;;;21.31;100.00;101363.47;5026509;28;68089;-68
2022/08/19 06:09:23;;;;;;;;;8.00;6.00;;;;;21.31;100.00;101358.09;5026409;28;45488;-68
2022/08/19 06:11:54;;;;;;;;;5.00;5.00;;;;;21.31;100.00;101365.28;5028909;28;46578;-69
2022/08/19 06:14:24;;;;;;;;;5.00;5.00;;;;;21.31;100.00;101351.84;5026667;28;45474;-72
2022/08/19 06:16:52;;;;;;;;;6.33;5.00;;;;;21.36;100.00;101364.25;5027876;28;46410;-72
2022/08/19 06:19:19;;;;;;;;;5.00;5.00;;;;;21.44;100.00;101374.78;5031686;28;45570;-69
2022/08/19 06:21:46;;;;;;;;;5.33;5.00;;;;;21.44;100.00;101370.28;5020394;28;45434;-71
2022/08/19 06:24:13;;;;;;;;;5.00;5.00;;;;;21.49;100.00;101367.50;5024867;28;45702;-69
2022/08/19 06:26:40;;;;;;;;;7.00;5.67;;;;;21.56;100.00;101378.94;5021711;28;46539;-69
2022/08/19 06:29:07;;;;;;;;;5.00;5.00;;;;;21.54;100.00;101379.00;5027812;28;47174;-70
2022/08/19 06:31:34;;;;;;;;;5.00;5.00;;;;;21.45;100.00;101377.41;5022742;28;45558;-71
2022/08/19 06:34:04;;;;;;;;;6.33;5.33;;;;;21.52;100.00;101388.00;5009936;28;46381;-69
2022/08/19 06:36:35;;;;;;;;;5.00;4.00;;;;;21.49;100.00;101380.03;5026681;28;46571;-70
2022/08/19 06:39:32;;;;;;;;;5.00;5.00;;;;;21.45;100.00;101369.34;5030394;28;45472;-70
2022/08/19 06:42:00;;;;;;;;;8.00;6.00;;;;;21.51;100.00;101379.06;5016799;28;45456;-69
2022/08/19 06:44:29;;;;;;;;;6.00;5.00;;;;;21.53;100.00;101374.56;5024734;28;45752;-69
2022/08/19 06:46:55;;;;;;;;;4.67;4.67;;;;;21.63;100.00;101380.59;5023103;28;46521;-69
2022/08/19 06:49:21;;;;;;;;;5.33;5.33;;;;;21.68;100.00;101378.66;5021655;28;45483;-70
2022/08/19 06:51:48;;;;;;;;;4.00;4.00;;;;;21.74;100.00;101385.69;5025281;28;45322;-71
2022/08/19 06:54:14;;;;;;;;;5.00;5.00;;;;;21.70;100.00;101383.06;5031306;28;45513;-72
2022/08/19 06:56:40;;;;;;;;;4.67;3.00;;;;;21.78;100.00;101381.97;5013976;28;46547;-71
2022/08/19 06:59:11;;;;;;;;;6.00;4.67;;;;;21.82;100.00;101389.91;5022998;28;45362;-69
2022/08/19 07:01:43;;;;;;;;;6.00;4.00;;;;;21.82;100.00;101394.41;5010414;28;46840;-71
2022/08/19 07:04:09;;;;;;;;;6.67;6.67;;;;;21.83;100.00;101391.66;5021958;28;45546;-71
2022/08/19 07:06:36;;;;;;;;;5.33;5.33;;;;;21.83;100.00;101402.41;5031307;28;45561;-70
2022/08/19 07:09:04;;;;;;;;;6.00;6.00;;;;;21.85;100.00;101397.91;5025591;28;45497;-69
2022/08/19 07:11:30;;;;;;;;;3.00;3.00;;;;;21.83;100.00;101398.84;5037280;28;45362;-71
2022/08/19 07:13:56;;;;;;;;;2.67;2.67;;;;;21.86;100.00;101407.72;5020354;28;45612;-69
2022/08/19 07:16:21;;;;;;;;;5.00;3.00;;;;;21.86;100.00;101401.47;5018899;28;45554;-74
2022/08/19 07:18:48;;;;;;;;;4.00;2.00;;;;;21.82;100.00;101397.97;5030567;28;45458;-72
2022/08/19 07:21:21;;;;;;;;;2.67;2.67;;;;;21.83;100.00;101402.41;5028453;28;45346;-73
2022/08/19 07:23:47;;;;;;;;;2.67;2.00;;;;;21.85;100.00;101397.03;5027207;28;45375;-70
2022/08/19 07:26:24;;;;;;;;;6.00;2.67;;;;;21.90;100.00;101401.34;5161869;22;46442;-71
2022/08/19 07:28:50;;;;;;;;;3.67;3.00;;;;;21.87;100.00;101398.72;5044799;28;45546;-71
2022/08/19 07:31:18;;;;;;;;;2.33;2.00;;;;;21.90;100.00;101406.72;5045662;28;51161;-71
2022/08/19 07:33:45;;;;;;;;;2.00;2.00;;;;;21.84;100.00;101400.59;5054771;28;45584;-71
2022/08/19 07:36:12;;;;;;;;;2.33;2.33;;;;;21.82;100.00;101397.09;5046007;28;46474;-70
2022/08/19 07:38:39;;;;;;;;;2.00;2.00;;;;;21.86;100.00;101401.47;5050279;28;45499;-69
2022/08/19 07:41:05;;;;;;;;;2.33;2.33;;;;;21.87;100.00;101397.84;5047156;28;45394;-71
2022/08/19 07:43:32;;;;;;;;;1.00;1.00;;;;;21.92;100.00;101404.88;5044745;28;45417;-71
2022/08/19 07:45:57;;;;;;;;;3.00;1.67;;;;;21.91;100.00;101405.81;5054780;28;46488;-70
2022/08/19 07:48:25;;;;;;;;;2.00;2.00;;;;;21.90;100.00;101395.97;5040923;28;48656;-72
2022/08/19 07:50:54;;;;;;;;;4.67;4.00;;;;;21.98;100.00;101404.69;5033713;28;45283;-73
2022/08/19 07:53:23;;;;;;;;;5.67;4.00;;;;;22.02;100.00;101407.31;5053017;28;45801;-70
2022/08/19 07:55:49;;;;;;;;;4.00;4.00;;;;;22.03;100.00;101392.94;5026763;28;47371;-71
2022/08/19 07:58:17;;;;;;;;;5.33;4.00;;;;;22.13;100.00;101400.75;5044769;28;45421;-73
2022/08/19 08:00:44;;;;;;;;;3.33;3.00;;;;;22.13;100.00;101386.41;5030340;28;45479;-69
2022/08/19 08:03:10;;;;;;;;;2.00;2.00;;;;;22.21;100.00;101396.06;5045312;28;45657;-70
2022/08/19 08:11:05;;;;;;;;;3.00;2.00;;;;;22.35;100.00;101403.72;5054529;28;45459;-70
2022/08/19 08:13:30;;;;;;;;;1.67;1.33;;;;;22.38;100.00;101398.25;5052372;28;45623;-74
2022/08/19 08:15:57;;;;;;;;;2.00;2.00;;;;;22.37;100.00;101396.50;5041310;28;46367;-71
2022/08/19 08:18:23;;;;;;;;;0.00;0.00;;;;;22.40;100.00;101393.69;5039877;28;48398;-70
2022/08/19 08:20:49;;;;;;;;;1.00;1.00;;;;;22.43;100.00;101399.00;5042047;28;45366;-70
2022/08/19 08:23:24;;;;;;;;;1.00;1.00;;;;;22.53;100.00;101406.78;5041761;28;58017;-69
2022/08/19 08:25:50;;;;;;;;;1.00;1.00;;;;;22.53;100.00;101410.38;5046340;28;46523;-69
2022/08/19 08:28:16;;;;;;;;;2.00;2.00;;;;;22.53;100.00;101415.78;5049943;28;45502;-69
2022/08/19 08:30:43;;;;;;;;;4.00;2.00;;;;;22.57;100.00;101416.53;5055042;28;45437;-71
2022/08/19 08:33:09;;;;;;;;;3.00;3.00;;;;;22.57;100.00;101417.41;5048326;28;45507;-69
2022/08/19 08:35:34;;;;;;;;;2.00;2.00;;;;;22.57;100.00;101408.47;5050466;28;45965;-71
2022/08/19 08:38:01;;;;;;;;;1.00;1.00;;;;;22.58;100.00;101411.09;5048304;28;45656;-70
2022/08/19 08:40:28;;;;;;;;;3.00;1.67;;;;;22.68;100.00;101417.97;5047754;28;45576;-70
2022/08/19 08:43:07;;;;;;;;;3.00;3.00;;;;;22.78;100.00;101412.31;5049180;28;45598;-73
2022/08/19 08:45:36;;;;;;;;;1.33;1.33;;;;;22.82;100.00;101401.44;5035173;28;45829;-73
2022/08/19 08:48:18;;;;;;;;;2.00;2.00;;;;;22.94;100.00;101410.97;5036663;28;45311;-68
2022/08/19 08:50:45;;;;;;;;;1.00;1.00;;;;;22.93;100.00;101407.38;5028058;28;45390;-73
2022/08/19 08:53:14;;;;;;;;;2.00;2.00;;;;;22.99;100.00;101420.66;5041352;28;59163;-70
2022/08/19 08:55:41;;;;;;;;;2.67;2.00;;;;;22.99;100.00;101406.31;5021661;28;46687;-69
2022/08/19 08:58:13;;;;;;;;;2.00;2.00;;;;;23.02;100.00;101406.22;5052927;28;45702;-69
2022/08/19 09:00:43;;;;;;;;;1.33;1.33;;;;;23.08;100.00;101413.25;5049514;28;45516;-69
2022/08/19 09:03:28;;;;;;;;;3.67;2.33;;;;;23.16;100.00;101413.84;5055310;28;45385;-70
2022/08/19 09:06:04;;;;;;;;;2.33;2.33;;;;;23.15;100.00;101412.97;5039366;28;45948;-74
2022/08/19 09:08:37;;;;;;;;;1.00;1.00;;;;;23.25;100.00;101414.44;5039919;28;45329;-70
2022/08/19 09:11:08;;;;;;;;;2.00;2.00;;;;;23.29;100.00;101403.59;5049959;28;45349;-71
2022/08/19 09:13:55;;;;;;;;;1.33;1.33;;;;;23.37;100.00;101412.28;5055252;28;45421;-70
2022/08/19 09:16:23;;;;;;;;;4.00;2.33;;;;;23.38;100.00;101398.75;5044677;28;45604;-71
2022/08/19 09:18:57;;;;;;;;;2.00;2.00;;;;;23.44;100.00;101400.38;5025546;28;45551;-71
2022/08/19 09:21:25;;;;;;;;;1.67;1.67;;;;;23.50;100.00;101397.47;5045487;28;45544;-72
2022/08/19 09:23:51;;;;;;;;;2.00;2.00;;;;;23.55;100.00;101394.63;5024646;28;45430;-70
2022/08/19 09:26:20;;;;;;;;;4.00;2.00;;;;;23.63;100.00;101408.75;5048012;28;45720;-70
2022/08/19 09:28:46;;;;;;;;;2.00;2.00;;;;;23.66;100.00;101400.56;5047140;28;45458;-69
2022/08/19 09:31:32;;;;;;;;;3.00;3.00;;;;;23.76;100.00;101408.28;5049734;28;45430;-71
2022/08/19 09:33:58;;;;;;;;;3.00;3.00;;;;;23.81;100.00;101404.53;5046172;28;45747;-72
2022/08/19 09:36:25;;;;;;;;;3.67;2.67;;;;;23.80;100.00;101387.47;5042655;28;45545;-71
2022/08/19 09:38:52;;;;;;;;;1.33;1.33;;;;;23.91;100.00;101409.56;5044520;28;45476;-70
2022/08/19 09:41:19;;;;;;;;;4.33;2.00;;;;;23.94;100.00;101390.56;5024700;28;45564;-71
2022/08/19 09:43:47;;;;;;;;;2.00;2.00;;;;;24.04;100.00;101386.63;5046397;28;45308;-71
2022/08/19 09:46:12;;;;;;;;;2.00;2.00;;;;;24.16;100.00;101404.16;5042665;28;46462;-73
2022/08/19 09:48:39;;;;;;;;;2.67;2.33;;;;;24.23;100.00;101411.09;5030674;28;45586;-70
2022/08/19 09:51:15;;;;;;;;;2.00;2.00;;;;;24.26;100.00;101400.19;5054698;28;45420;-72
2022/08/19 09:53:41;;;;;;;;;1.67;1.33;;;;;24.34;100.00;101407.13;5044367;28;45527;-73
2022/08/19 09:56:07;;;;;;;;;2.00;2.00;;;;;24.35;100.00;101404.41;5030564;28;46757;-70
2022/08/19 09:58:34;;;;;;;;;2.00;2.00;;;;;24.35;100.00;101406.22;5043223;28;45517;-70
2022/08/19 10:01:01;;;;;;;;;1.00;0.00;;;;;24.32;100.00;101401.78;5045847;28;45473;-74
2022/08/19 10:03:27;;;;;;;;;2.00;2.00;;;;;24.29;100.00;101400.09;5044905;28;45387;-70
2022/08/19 10:05:53;;;;;;;;;1.00;1.00;;;;;24.33;100.00;101408.94;5045736;28;46147;-72
2022/08/19 10:08:41;;;;;;;;;2.00;2.00;;;;;24.35;100.00;101401.72;5046338;28;45642;-70
2022/08/19 10:11:06;;;;;;;;;2.00;2.00;;;;;24.48;100.00;101410.22;5048498;28;45531;-70
2022/08/19 10:13:34;;;;;;;;;3.33;2.33;;;;;24.51;100.00;101402.91;5051565;28;56361;-72
2022/08/19 10:16:12;;;;;;;;;3.00;2.00;;;;;24.58;100.00;101400.84;5045406;28;46569;-70
2022/08/19 10:18:38;;;;;;;;;2.00;1.00;;;;;24.59;100.00;101391.81;5047922;28;45470;-71
2022/08/19 10:21:19;;;;;;;;;2.00;2.00;;;;;24.63;100.00;101395.28;5044323;28;45931;-71
2022/08/19 10:23:46;;;;;;;;;2.00;2.00;;;;;24.70;100.00;101394.09;5031565;28;45370;-71
2022/08/19 10:26:16;;;;;;;;;3.00;3.00;;;;;24.78;100.00;101403.66;5047263;28;46434;-71
2022/08/19 10:28:42;;;;;;;;;2.00;2.00;;;;;24.85;100.00;101379.09;5048116;28;45435;-70
2022/08/19 10:31:19;;;;;;;;;1.00;1.00;;;;;24.93;100.00;101385.06;5047733;28;56321;-73
2022/08/19 10:33:46;;;;;;;;;1.00;1.00;;;;;24.98;100.00;101378.56;5044949;28;45513;-72
2022/08/19 10:36:23;;;;;;;;;2.00;2.00;;;;;25.04;100.00;101381.03;5027211;28;46588;-70
2022/08/19 10:38:51;;;;;;;;;2.67;2.67;;;;;25.15;100.00;101386.03;5037687;28;45617;-70
2022/08/19 10:41:19;;;;;;;;;2.00;2.00;;;;;25.20;100.00;101392.13;5050163;28;45464;-73
2022/08/19 10:43:45;;;;;;;;;2.00;2.00;;;;;25.23;100.00;101383.00;5042682;28;45619;-71
2022/08/19 10:46:13;;;;;;;;;2.00;2.00;;;;;25.26;100.00;101372.06;5056315;28;46843;-71
2022/08/19 10:48:40;;;;;;;;;1.33;1.33;;;;;25.36;100.00;101377.97;5044617;28;45325;-72
2022/08/19 10:53:50;;;;;;;;;2.00;2.00;;;;;25.46;100.00;101380.22;5045912;28;45474;-71
2022/08/19 10:59:02;;;;;;;;;2.67;1.00;;;;;25.48;100.00;101377.44;5048684;28;45381;-71
2022/08/19 11:01:29;;;;;;;;;1.00;1.00;;;;;25.37;100.00;101383.31;5048839;28;45436;-71
2022/08/19 11:03:56;;;;;;;;;2.00;2.00;;;;;25.32;100.00;101379.91;5031798;28;45246;-72
2022/08/19 11:06:21;;;;;;;;;2.00;2.00;;;;;25.24;100.00;101377.50;5030230;28;45720;-71
2022/08/19 11:08:47;;;;;;;;;2.00;2.00;;;;;25.17;100.00;101377.84;5047612;28;68333;-70
2022/08/19 11:11:12;;;;;;;;;3.00;1.00;;;;;25.15;100.00;101385.16;5053541;28;45798;-70
2022/08/19 11:13:40;;;;;;;;;2.00;2.00;;;;;25.05;100.00;101373.78;5055590;28;45354;-71
2022/08/19 11:16:10;;;;;;;;;2.67;2.00;;;;;25.04;100.00;101380.16;5019086;28;46607;-71
2022/08/19 11:18:40;;;;;;;;;2.00;2.00;;;;;25.03;100.00;101381.06;5042057;28;45578;-71
2022/08/19 11:21:08;;;;;;;;;1.67;1.67;;;;;24.99;100.00;101374.03;5049950;28;45337;-71
2022/08/19 11:23:33;;;;;;;;;1.33;1.33;;;;;24.99;100.00;101379.44;5035351;28;45556;-72
2022/08/19 11:25:59;;;;;;;;;3.00;2.00;;;;;24.92;100.00;101370.69;5052481;28;46661;-71
2022/08/19 11:28:24;;;;;;;;;3.00;2.00;;;;;24.93;100.00;101377.88;5048320;28;45525;-71
2022/08/19 11:30:50;;;;;;;;;1.00;1.00;;;;;24.87;100.00;101378.09;5052971;28;45510;-71